createdAt,value
2023-05-01T00:01:33.170Z,11.55
2023-05-01T00:04:01.525Z,11.50
2023-05-01T00:06:29.966Z,11.49
2023-05-01T00:08:57.765Z,11.51
2023-05-01T00:11:26.255Z,11.53
2023-05-01T00:13:54.457Z,11.56
2023-05-01T00:16:22.659Z,11.57
2023-05-01T00:18:50.575Z,11.59
2023-05-01T00:21:18.348Z,11.61
2023-05-01T00:23:46.370Z,11.61
2023-05-01T00:26:14.024Z,11.61
2023-05-01T00:28:44.106Z,11.56
2023-05-01T00:31:11.981Z,11.49
2023-05-01T00:33:40.541Z,11.44
2023-05-01T00:36:10.011Z,11.41
2023-05-01T00:38:37.805Z,11.41
2023-05-01T00:41:05.801Z,11.40
2023-05-01T00:43:33.737Z,11.40
2023-05-01T00:46:01.789Z,11.41
2023-05-01T00:48:29.853Z,11.42
2023-05-01T00:50:58.287Z,11.43
2023-05-01T00:53:26.504Z,11.41
2023-05-01T00:55:56.746Z,11.36
2023-05-01T00:58:24.500Z,11.31
2023-05-01T01:00:53.146Z,11.30
2023-05-01T01:03:21.404Z,11.28
2023-05-01T01:05:52.966Z,11.27
2023-05-01T01:11:42.803Z,11.23
2023-05-01T01:14:11.493Z,11.21
2023-05-01T01:16:48.884Z,11.19
2023-05-01T01:19:32.725Z,11.16
2023-05-01T01:22:04.061Z,11.14
2023-05-01T01:24:41.464Z,11.12
2023-05-01T01:27:29.290Z,11.11
2023-05-01T01:30:16.919Z,11.06
2023-05-01T01:32:48.490Z,11.04
2023-05-01T01:35:26.431Z,11.00
2023-05-01T01:38:18.114Z,10.98
2023-05-01T01:40:53.437Z,10.97
2023-05-01T01:43:23.757Z,10.99
2023-05-01T01:45:59.779Z,10.95
2023-05-01T01:48:32.294Z,10.94
2023-05-01T01:51:01.400Z,10.93
2023-05-01T01:53:31.310Z,10.91
2023-05-01T01:56:02.408Z,10.90
2023-05-01T01:58:33.086Z,10.94
2023-05-01T02:01:02.392Z,10.99
2023-05-01T02:03:31.787Z,11.02
2023-05-01T02:06:01.137Z,11.00
2023-05-01T02:08:31.100Z,10.97
2023-05-01T02:11:02.255Z,10.92
2023-05-01T02:13:31.851Z,10.90
2023-05-01T02:16:01.693Z,10.86
2023-05-01T02:18:32.398Z,10.84
2023-05-01T02:21:02.506Z,10.77
2023-05-01T02:23:31.859Z,10.74
2023-05-01T02:26:01.120Z,10.74
2023-05-01T02:28:30.585Z,10.72
2023-05-01T02:30:58.913Z,10.71
2023-05-01T02:33:29.132Z,10.71
2023-05-01T02:35:57.371Z,10.69
2023-05-01T02:38:25.580Z,10.65
2023-05-01T02:40:57.458Z,10.63
2023-05-01T02:43:26.983Z,10.58
2023-05-01T02:45:55.193Z,10.52
2023-05-01T02:48:28.456Z,10.48
2023-05-01T02:50:57.203Z,10.42
2023-05-01T02:53:25.360Z,10.39
2023-05-01T02:55:57.178Z,10.37
2023-05-01T02:58:25.011Z,10.34
2023-05-01T03:00:53.233Z,10.33
2023-05-01T03:03:21.884Z,10.32
2023-05-01T03:05:49.965Z,10.31
2023-05-01T03:08:18.149Z,10.31
2023-05-01T03:10:45.895Z,10.29
2023-05-01T03:13:13.699Z,10.28
2023-05-01T03:15:41.904Z,10.28
2023-05-01T03:18:10.072Z,10.26
2023-05-01T03:20:38.279Z,10.27
2023-05-01T03:23:06.891Z,10.26
2023-05-01T03:25:34.751Z,10.24
2023-05-01T03:28:02.853Z,10.24
2023-05-01T03:30:33.355Z,10.25
2023-05-01T03:33:01.641Z,10.24
2023-05-01T03:35:31.429Z,10.22
2023-05-01T03:37:59.737Z,10.21
2023-05-01T03:40:45.893Z,10.17
2023-05-01T03:43:32.535Z,10.13
2023-05-01T03:46:06.722Z,10.10
2023-05-01T03:48:34.832Z,10.12
2023-05-01T03:51:03.261Z,10.16
2023-05-01T03:53:32.593Z,10.20
2023-05-01T03:56:01.431Z,10.23
2023-05-01T03:58:29.429Z,10.29
2023-05-01T04:01:00.887Z,10.34
2023-05-01T04:03:28.977Z,10.38
2023-05-01T04:05:57.540Z,10.41
2023-05-01T04:08:25.498Z,10.40
2023-05-01T04:10:53.380Z,10.36
2023-05-01T04:13:21.476Z,10.34
2023-05-01T04:15:50.363Z,10.32
2023-05-01T04:18:18.826Z,10.32
2023-05-01T04:20:46.990Z,10.33
2023-05-01T04:23:14.942Z,10.36
2023-05-01T04:25:42.740Z,10.42
2023-05-01T04:28:13.872Z,10.54
2023-05-01T04:30:41.806Z,10.71
2023-05-01T04:33:12.924Z,10.85
2023-05-01T04:35:42.242Z,11.01
2023-05-01T04:38:13.229Z,11.26
2023-05-01T04:40:41.786Z,11.54
2023-05-01T04:43:11.145Z,11.77
2023-05-01T04:45:39.585Z,11.99
2023-05-01T04:48:08.015Z,12.26
2023-05-01T04:50:36.208Z,12.46
2023-05-01T04:53:04.234Z,12.65
2023-05-01T04:55:32.923Z,12.75
2023-05-01T04:58:05.867Z,12.76
2023-05-01T05:00:34.870Z,12.78
2023-05-01T05:03:03.553Z,12.93
2023-05-01T05:05:32.460Z,13.17
2023-05-01T05:08:00.533Z,13.28
2023-05-01T05:10:35.299Z,13.38
2023-05-01T05:13:25.050Z,13.61
2023-05-01T05:16:00.576Z,13.77
2023-05-01T05:18:29.135Z,13.81
2023-05-01T05:20:57.370Z,13.99
2023-05-01T05:23:25.354Z,14.19
2023-05-01T05:25:53.734Z,14.36
2023-05-01T05:28:21.492Z,14.39
2023-05-01T05:30:49.466Z,14.46
2023-05-01T05:33:19.034Z,14.49
2023-05-01T05:35:47.407Z,14.58
2023-05-01T05:38:16.000Z,14.73
2023-05-01T05:40:44.504Z,14.83
2023-05-01T05:43:12.745Z,14.89
2023-05-01T05:45:41.286Z,14.96
2023-05-01T05:48:09.545Z,15.05
2023-05-01T05:50:39.863Z,15.17
2023-05-01T05:53:09.368Z,15.21
2023-05-01T05:55:39.027Z,15.15
2023-05-01T05:58:07.746Z,15.14
2023-05-01T06:00:36.119Z,15.17
2023-05-01T06:03:05.880Z,15.22
2023-05-01T06:05:34.453Z,15.16
2023-05-01T06:08:02.588Z,15.08
2023-05-01T06:10:31.592Z,15.00
2023-05-01T06:13:08.909Z,14.95
2023-05-01T06:15:46.209Z,14.86
2023-05-01T06:18:14.537Z,14.87
2023-05-01T06:20:42.913Z,14.81
2023-05-01T06:23:11.020Z,14.79
2023-05-01T06:26:04.916Z,14.83
2023-05-01T06:28:33.377Z,14.95
2023-05-01T06:31:01.739Z,15.10
2023-05-01T06:33:31.284Z,15.32
2023-05-01T06:36:16.028Z,15.51
2023-05-01T06:38:48.692Z,15.66
2023-05-01T06:41:17.357Z,15.81
2023-05-01T06:43:46.305Z,15.90
2023-05-01T06:46:14.379Z,16.00
2023-05-01T06:48:42.316Z,16.10
2023-05-01T06:51:10.162Z,16.15
2023-05-01T06:53:38.556Z,16.11
2023-05-01T06:56:07.025Z,16.10
2023-05-01T06:58:35.144Z,16.22
2023-05-01T07:01:03.213Z,16.41
2023-05-01T07:03:31.294Z,16.53
2023-05-01T07:05:59.090Z,16.63
2023-05-01T07:08:28.279Z,16.76
2023-05-01T07:10:56.275Z,16.83
2023-05-01T07:13:24.866Z,16.81
2023-05-01T07:15:54.677Z,16.85
2023-05-01T07:18:22.748Z,16.96
2023-05-01T07:20:50.971Z,17.08
2023-05-01T07:23:19.010Z,17.21
2023-05-01T07:25:47.467Z,17.40
2023-05-01T07:28:15.888Z,17.65
2023-05-01T07:30:44.366Z,17.82
2023-05-01T07:33:12.128Z,18.00
2023-05-01T07:35:40.158Z,18.25
2023-05-01T07:38:09.048Z,18.46
2023-05-01T07:40:38.464Z,18.65
2023-05-01T07:43:07.379Z,18.79
2023-05-01T07:45:35.203Z,18.94
2023-05-01T07:48:03.097Z,19.13
2023-05-01T07:50:31.122Z,19.31
2023-05-01T07:52:59.122Z,19.57
2023-05-01T07:55:26.956Z,19.76
2023-05-01T07:57:55.044Z,19.96
2023-05-01T08:00:22.848Z,20.15
2023-05-01T08:02:51.711Z,20.36
2023-05-01T08:05:20.558Z,20.62
2023-05-01T08:07:48.392Z,20.80
2023-05-01T08:10:16.272Z,20.96
2023-05-01T08:12:44.497Z,21.12
2023-05-01T08:15:12.256Z,21.28
2023-05-01T08:17:40.126Z,21.47
2023-05-01T08:20:08.491Z,21.62
2023-05-01T08:22:36.453Z,21.76
2023-05-01T08:25:06.002Z,21.94
2023-05-01T08:27:34.077Z,22.11
2023-05-01T08:30:01.990Z,22.22
2023-05-01T08:32:29.995Z,22.29
2023-05-01T08:34:58.296Z,22.34
2023-05-01T08:37:26.858Z,22.38
2023-05-01T08:39:55.376Z,22.38
2023-05-01T08:42:23.430Z,22.34
2023-05-01T08:44:52.962Z,22.24
2023-05-01T08:47:21.678Z,22.24
2023-05-01T08:49:51.257Z,22.14
2023-05-01T08:52:21.106Z,22.06
2023-05-01T08:54:51.018Z,22.11
2023-05-01T08:57:19.230Z,22.23
2023-05-01T08:59:48.450Z,22.28
2023-05-01T09:02:17.223Z,22.33
2023-05-01T09:04:46.152Z,22.29
2023-05-01T09:07:14.355Z,22.17
2023-05-01T09:09:42.622Z,22.09
2023-05-01T09:12:24.771Z,22.12
2023-05-01T09:14:54.530Z,22.17
2023-05-01T09:17:23.429Z,22.29
2023-05-01T09:19:52.163Z,22.41
2023-05-01T09:22:20.579Z,22.44
2023-05-01T09:24:48.744Z,22.54
2023-05-01T09:27:16.588Z,22.59
2023-05-01T09:29:48.267Z,22.54
2023-05-01T09:32:22.836Z,22.50
2023-05-01T09:34:51.620Z,22.50
2023-05-01T09:37:29.680Z,22.57
2023-05-01T09:40:08.766Z,22.62
2023-05-01T09:42:37.933Z,22.64
2023-05-01T09:45:12.087Z,22.66
2023-05-01T09:47:41.049Z,22.66
2023-05-01T09:50:09.082Z,22.69
2023-05-01T09:52:36.871Z,22.76
2023-05-01T09:55:14.943Z,22.81
2023-05-01T09:57:43.298Z,22.80
2023-05-01T10:00:12.645Z,22.83
2023-05-01T10:02:41.270Z,22.88
2023-05-01T10:05:09.745Z,22.96
2023-05-01T10:07:38.136Z,23.10
2023-05-01T10:10:19.091Z,23.26
2023-05-01T10:12:47.616Z,23.35
2023-05-01T10:15:24.625Z,23.37
2023-05-01T10:17:55.035Z,23.35
2023-05-01T10:20:23.120Z,23.31
2023-05-01T10:22:50.983Z,23.39
2023-05-01T10:25:20.737Z,23.43
2023-05-01T10:27:50.091Z,23.31
2023-05-01T10:30:18.417Z,23.33
2023-05-01T10:32:47.313Z,23.36
2023-05-01T10:35:20.043Z,23.41
2023-05-01T10:37:49.046Z,23.47
2023-05-01T10:40:35.526Z,23.49
2023-05-01T10:43:16.180Z,23.65
2023-05-01T10:45:45.189Z,23.77
2023-05-01T10:48:13.284Z,23.82
2023-05-01T10:50:59.769Z,23.70
2023-05-01T10:53:27.627Z,23.68
2023-05-01T10:55:55.393Z,23.69
2023-05-01T10:58:35.443Z,23.78
2023-05-01T11:01:22.380Z,23.79
2023-05-01T11:03:50.772Z,23.78
2023-05-01T11:06:18.604Z,23.85
2023-05-01T11:08:47.473Z,23.98
2023-05-01T11:11:22.220Z,24.09
2023-05-01T11:14:02.608Z,24.15
2023-05-01T11:16:40.013Z,24.20
2023-05-01T11:19:07.951Z,24.28
2023-05-01T11:21:37.377Z,24.35
2023-05-01T11:24:06.320Z,24.37
2023-05-01T11:26:37.977Z,24.45
2023-05-01T11:29:06.353Z,24.60
2023-05-01T11:31:34.685Z,24.71
2023-05-01T11:34:03.278Z,24.83
2023-05-01T11:36:48.325Z,24.95
2023-05-01T11:39:20.560Z,25.02
2023-05-01T11:41:49.018Z,24.93
2023-05-01T11:44:17.960Z,24.83
2023-05-01T11:46:46.009Z,24.74
2023-05-01T11:49:15.160Z,24.81
2023-05-01T11:51:42.966Z,24.91
2023-05-01T11:54:13.781Z,24.95
2023-05-01T11:56:43.964Z,24.96
2023-05-01T11:59:16.942Z,25.03
2023-05-01T12:01:45.889Z,25.08
2023-05-01T12:04:23.203Z,25.20
2023-05-01T12:06:51.573Z,25.40
2023-05-01T12:09:20.580Z,25.48
2023-05-01T12:11:52.273Z,25.55
2023-05-01T12:14:21.946Z,25.61
2023-05-01T12:16:50.258Z,25.71
2023-05-01T12:19:20.507Z,25.79
2023-05-01T12:22:04.811Z,25.78
2023-05-01T12:24:33.044Z,25.71
2023-05-01T12:27:01.257Z,25.68
2023-05-01T12:29:42.147Z,25.67
2023-05-01T12:32:10.247Z,25.74
2023-05-01T12:34:38.575Z,25.90
2023-05-01T12:37:06.871Z,25.99
2023-05-01T12:39:39.534Z,26.04
2023-05-01T12:42:14.829Z,26.06
2023-05-01T12:44:43.797Z,26.06
2023-05-01T12:47:12.507Z,26.10
2023-05-01T12:49:41.616Z,26.17
2023-05-01T12:52:09.653Z,26.29
2023-05-01T12:54:38.790Z,26.28
2023-05-01T12:57:14.886Z,26.26
2023-05-01T12:59:43.961Z,26.38
2023-05-01T13:02:12.834Z,26.39
2023-05-01T13:04:41.404Z,26.41
2023-05-01T13:07:14.827Z,26.32
2023-05-01T13:09:53.353Z,26.23
2023-05-01T13:12:21.606Z,26.27
2023-05-01T13:14:50.095Z,26.37
2023-05-01T13:17:25.668Z,26.49
2023-05-01T13:19:54.672Z,26.50
2023-05-01T13:22:32.523Z,26.43
2023-05-01T13:25:01.411Z,26.33
2023-05-01T13:27:29.621Z,26.27
2023-05-01T13:29:58.762Z,26.23
2023-05-01T13:32:27.187Z,26.28
2023-05-01T13:34:56.405Z,26.30
2023-05-01T13:37:24.207Z,26.30
2023-05-01T13:39:56.638Z,26.28
2023-05-01T13:42:27.602Z,26.17
2023-05-01T13:44:56.286Z,26.08
2023-05-01T13:47:28.091Z,26.05
2023-05-01T13:49:56.994Z,26.01
2023-05-01T13:52:24.868Z,25.96
2023-05-01T13:54:53.497Z,25.96
2023-05-01T13:57:21.587Z,25.91
2023-05-01T13:59:49.510Z,25.76
2023-05-01T14:02:22.061Z,25.72
2023-05-01T14:04:50.197Z,25.82
2023-05-01T14:07:19.340Z,25.90
2023-05-01T14:09:57.369Z,25.85
2023-05-01T14:12:31.994Z,25.77
2023-05-01T14:15:03.590Z,25.69
2023-05-01T14:17:32.822Z,25.63
2023-05-01T14:20:01.086Z,25.62
2023-05-01T14:22:29.964Z,25.56
2023-05-01T14:24:58.787Z,25.47
2023-05-01T14:27:27.249Z,25.48
2023-05-01T14:29:55.164Z,25.41
2023-05-01T14:32:23.408Z,25.38
2023-05-01T14:34:51.739Z,25.31
2023-05-01T14:37:19.616Z,25.33
2023-05-01T14:39:47.647Z,25.37
2023-05-01T14:42:16.054Z,25.41
2023-05-01T14:44:44.141Z,25.41
2023-05-01T14:47:14.640Z,25.41
2023-05-01T14:49:43.284Z,25.35
2023-05-01T14:52:12.568Z,25.30
2023-05-01T14:54:46.560Z,25.26
2023-05-01T14:57:14.653Z,25.16
2023-05-01T14:59:42.492Z,25.11
2023-05-01T15:02:10.568Z,25.06
2023-05-01T15:04:38.486Z,24.99
2023-05-01T15:07:06.251Z,24.93
2023-05-01T15:09:34.028Z,24.88
2023-05-01T15:12:04.923Z,24.80
2023-05-01T15:14:34.028Z,24.73
2023-05-01T15:17:02.457Z,24.64
2023-05-01T15:19:30.413Z,24.58
2023-05-01T15:21:58.962Z,24.50
2023-05-01T15:24:26.736Z,24.45
2023-05-01T15:26:54.607Z,24.38
2023-05-01T15:29:22.468Z,24.30
2023-05-01T15:31:58.316Z,24.22
2023-05-01T15:34:32.480Z,24.12
2023-05-01T15:37:00.779Z,24.05
2023-05-01T15:39:29.426Z,23.97
2023-05-01T15:41:57.423Z,23.91
2023-05-01T15:44:26.059Z,23.86
2023-05-01T15:46:53.877Z,23.81
2023-05-01T15:49:22.055Z,23.79
2023-05-01T15:51:49.784Z,23.75
2023-05-01T15:54:17.791Z,23.70
2023-05-01T15:56:45.686Z,23.66
2023-05-01T15:59:14.430Z,23.61
2023-05-01T16:01:42.518Z,23.59
2023-05-01T16:04:10.664Z,23.67
2023-05-01T16:06:39.915Z,23.70
2023-05-01T16:09:08.190Z,23.71
2023-05-01T16:11:36.086Z,23.70
2023-05-01T16:14:04.072Z,23.64
2023-05-01T16:16:33.723Z,23.54
2023-05-01T16:19:02.010Z,23.48
2023-05-01T16:21:29.869Z,23.40
2023-05-01T16:23:58.012Z,23.33
2023-05-01T16:26:28.159Z,23.27
2023-05-01T16:28:59.821Z,23.18
2023-05-01T16:31:28.301Z,23.12
2023-05-01T16:33:56.860Z,23.06
2023-05-01T16:36:24.941Z,23.01
2023-05-01T16:38:52.759Z,22.94
2023-05-01T16:41:20.472Z,22.84
2023-05-01T16:43:48.350Z,22.77
2023-05-01T16:46:19.558Z,22.72
2023-05-01T16:48:47.436Z,22.68
2023-05-01T16:51:15.886Z,22.60
2023-05-01T16:53:44.338Z,22.53
2023-05-01T16:56:13.027Z,22.47
2023-05-01T16:58:40.810Z,22.42
2023-05-01T17:01:09.095Z,22.35
2023-05-01T17:03:37.840Z,22.27
2023-05-01T17:06:05.687Z,22.18
2023-05-01T17:08:33.764Z,22.10
2023-05-01T17:11:01.777Z,22.05
2023-05-01T17:13:29.697Z,21.98
2023-05-01T17:15:57.482Z,21.92
2023-05-01T17:18:25.344Z,21.84
2023-05-01T17:20:53.010Z,21.75
2023-05-01T17:23:22.287Z,21.70
2023-05-01T17:25:50.362Z,21.63
2023-05-01T17:28:18.947Z,21.57
2023-05-01T17:30:46.749Z,21.50
2023-05-01T17:33:15.308Z,21.41
2023-05-01T17:35:43.109Z,21.35
2023-05-01T17:38:11.184Z,21.28
2023-05-01T17:40:39.252Z,21.20
2023-05-01T17:43:07.130Z,21.13
2023-05-01T17:45:34.891Z,21.02
2023-05-01T17:48:03.163Z,20.95
2023-05-01T17:50:31.002Z,20.88
2023-05-01T17:52:58.761Z,20.81
2023-05-01T17:55:28.155Z,20.74
2023-05-01T17:57:56.272Z,20.66
2023-05-01T18:00:24.212Z,20.60
2023-05-01T18:02:52.329Z,20.52
2023-05-01T18:05:20.367Z,20.48
2023-05-01T18:07:48.305Z,20.40
2023-05-01T18:10:16.651Z,20.33
2023-05-01T18:12:45.903Z,20.28
2023-05-01T18:15:15.864Z,20.21
2023-05-01T18:17:47.658Z,20.14
2023-05-01T18:20:15.599Z,20.07
2023-05-01T18:22:43.421Z,20.02
2023-05-01T18:25:11.685Z,19.95
2023-05-01T18:27:41.594Z,19.89
2023-05-01T18:30:09.694Z,19.83
2023-05-01T18:32:47.609Z,19.78
2023-05-01T18:35:17.110Z,19.72
2023-05-01T18:37:45.238Z,19.67
2023-05-01T18:40:13.084Z,19.58
2023-05-01T18:42:41.727Z,19.51
2023-05-01T18:45:10.271Z,19.44
2023-05-01T18:47:38.146Z,19.37
2023-05-01T18:50:06.507Z,19.30
2023-05-01T18:52:37.292Z,19.26
2023-05-01T18:55:05.276Z,19.21
2023-05-01T18:57:33.450Z,19.14
2023-05-01T19:00:01.860Z,19.09
2023-05-01T19:02:30.182Z,19.06
2023-05-01T19:04:58.418Z,19.01
2023-05-01T19:07:26.616Z,18.96
2023-05-01T19:09:54.798Z,18.90
2023-05-01T19:12:22.660Z,18.85
2023-05-01T19:14:50.454Z,18.79
2023-05-01T19:17:18.769Z,18.75
2023-05-01T19:19:46.594Z,18.71
2023-05-01T19:22:14.499Z,18.66
2023-05-01T19:24:42.257Z,18.61
2023-05-01T19:27:10.131Z,18.55
2023-05-01T19:29:39.633Z,18.49
2023-05-01T19:32:07.667Z,18.44
2023-05-01T19:34:35.707Z,18.39
2023-05-01T19:37:04.120Z,18.33
2023-05-01T19:39:31.958Z,18.27
2023-05-01T19:41:59.725Z,18.19
2023-05-01T19:44:27.843Z,18.10
2023-05-01T19:46:55.614Z,17.99
2023-05-01T19:49:25.017Z,17.91
2023-05-01T19:51:54.463Z,17.83
2023-05-01T19:54:22.691Z,17.77
2023-05-01T19:56:51.686Z,17.72
2023-05-01T19:59:19.974Z,17.68
2023-05-01T20:01:47.931Z,17.64
2023-05-01T20:04:15.890Z,17.63
2023-05-01T20:06:43.886Z,17.60
2023-05-01T20:09:11.746Z,17.57
2023-05-01T20:11:39.528Z,17.53
2023-05-01T20:14:07.409Z,17.49
2023-05-01T20:16:36.083Z,17.45
2023-05-01T20:19:03.825Z,17.42
2023-05-01T20:21:31.643Z,17.39
2023-05-01T20:23:59.465Z,17.35
2023-05-01T20:26:27.577Z,17.30
2023-05-01T20:28:56.733Z,17.24
2023-05-01T20:31:24.553Z,17.15
2023-05-01T20:33:52.426Z,17.06
2023-05-01T20:36:20.359Z,17.00
2023-05-01T20:38:48.638Z,16.94
2023-05-01T20:41:16.591Z,16.90
2023-05-01T20:43:44.769Z,16.85
2023-05-01T20:46:12.840Z,16.82
2023-05-01T20:48:40.920Z,16.79
2023-05-01T20:51:08.761Z,16.75
2023-05-01T20:53:36.736Z,16.71
2023-05-01T20:56:04.740Z,16.65
2023-05-01T20:58:32.606Z,16.60
2023-05-01T21:01:01.981Z,16.55
2023-05-01T21:03:29.898Z,16.50
2023-05-01T21:05:58.917Z,16.49
2023-05-01T21:08:27.648Z,16.45
2023-05-01T21:10:55.785Z,16.41
2023-05-01T21:13:25.116Z,16.34
2023-05-01T21:15:52.980Z,16.28
2023-05-01T21:18:21.169Z,16.21
2023-05-01T21:20:49.165Z,16.14
2023-05-01T21:23:17.453Z,16.07
2023-05-01T21:25:45.370Z,16.00
2023-05-01T21:28:13.870Z,15.92
2023-05-01T21:30:41.541Z,15.86
2023-05-01T21:33:12.467Z,15.81
2023-05-01T21:35:44.979Z,15.76
2023-05-01T21:38:12.924Z,15.69
2023-05-01T21:40:41.892Z,15.63
2023-05-01T21:43:10.021Z,15.56
2023-05-01T21:45:40.621Z,15.49
2023-05-01T21:48:09.243Z,15.44
2023-05-01T21:50:40.848Z,15.40
2023-05-01T21:53:08.876Z,15.34
2023-05-01T21:55:36.724Z,15.28
2023-05-01T21:58:04.601Z,15.22
2023-05-01T22:00:33.334Z,15.17
2023-05-01T22:03:04.500Z,15.12
2023-05-01T22:05:33.433Z,15.08
2023-05-01T22:08:01.142Z,15.03
2023-05-01T22:10:29.698Z,15.00
2023-05-01T22:12:57.604Z,14.97
2023-05-01T22:15:25.554Z,14.94
2023-05-01T22:17:53.560Z,14.91
2023-05-01T22:20:21.641Z,14.90
2023-05-01T22:22:49.640Z,14.86
2023-05-01T22:25:17.439Z,14.84
2023-05-01T22:27:45.502Z,14.83
2023-05-01T22:30:13.345Z,14.81
2023-05-01T22:32:41.020Z,14.78
2023-05-01T22:35:09.117Z,14.76
2023-05-01T22:37:37.114Z,14.73
2023-05-01T22:40:05.372Z,14.72
2023-05-01T22:42:33.281Z,14.71
2023-05-01T22:45:01.185Z,14.70
2023-05-01T22:47:29.275Z,14.65
2023-05-01T22:49:57.382Z,14.60
2023-05-01T22:52:25.607Z,14.58
2023-05-01T22:54:53.447Z,14.55
2023-05-01T22:57:21.158Z,14.53
2023-05-01T22:59:48.962Z,14.49
2023-05-01T23:02:17.690Z,14.45
2023-05-01T23:04:45.654Z,14.42
2023-05-01T23:07:13.470Z,14.40
2023-05-01T23:09:41.553Z,14.36
2023-05-01T23:12:14.396Z,14.35
2023-05-01T23:14:44.927Z,14.34
2023-05-01T23:17:13.636Z,14.34
2023-05-01T23:19:43.466Z,14.36
2023-05-01T23:22:13.096Z,14.35
2023-05-01T23:24:43.185Z,14.37
2023-05-01T23:27:11.785Z,14.38
2023-05-01T23:29:40.076Z,14.38
2023-05-01T23:32:18.334Z,14.38
2023-05-01T23:34:46.214Z,14.37
2023-05-01T23:37:13.873Z,14.39
2023-05-01T23:39:41.753Z,14.37
2023-05-01T23:42:10.386Z,14.36
2023-05-01T23:44:38.288Z,14.36
2023-05-01T23:47:06.522Z,14.36
2023-05-01T23:49:34.346Z,14.33
2023-05-01T23:52:02.292Z,14.32
2023-05-01T23:54:30.344Z,14.32
2023-05-01T23:56:58.032Z,14.31
2023-05-01T23:59:26.298Z,14.30
